首页
METAR-TAF:

METAR-TAF

机场 :

赤塔機場

赤塔, 俄罗斯

纬度: 52-05N, 经度: 113-29E, 海拔: 685米

当前天气观测

该预报发布于26分钟前的10:30 UTC
风速4节,风向
温度 8°C
湿度 13%
气压 1018 hPa
能见度10公里或以上

METAR: UIAA 241030Z 19002MPS 9999 NSC 08/M19 Q1018 R29/70D NOSIG RMK QFE705/0940

时间: 19:56 (10:56 UTC)

预报

该预报发布于2小时和56分钟前的08:00 UTC
预报有效从24日的 09点(UTC)到 25日的 09点(UTC)
风速6节,风向东转东南,有时为16节阵风
能见度10公里或以上

TAF: UIAA 240800Z 2409/2509 12003G08MPS 9999 NSC

超过4000个机场的气象观测和天气预报(METAR&TAF报告)。

可查询的气象台以黄色和红色小点在地图上表示。

将鼠标移到小点上方,可查看气象台名称。

然后点击查看天气观测和预报。

如需切换地图:点击带黑十字的绿色按钮放大地图;点击带横线的绿色按钮缩小地图;或者点击绿色箭头查看邻近地区的地图。


METAR-TAF: